EZY95AM EGJJ-EGGP
Flight info
| Callsign | EZY95AM |
|---|---|
| Flight time | 0h 45m |
| Altitude | 32000 |
| Route | SKERY L22 EMWIP P16 TOJAQ DCT EPACE DCT ACCOP DCT MOCQO P16 PEPZE |
| Aircraft | A320/M-SDE3FGHIRWY/LB1 |
Departure
| Time | 2026-05-04 08:05 |
|---|---|
| Airport | Jersey Airport (EGJJ) |
Arrival
| Time | 2026-05-04 08:50 |
|---|---|
| Airport | Liverpool John Lennon Airport (EGGP) |
| Time | Latitude | Longitude | Altitude | Speed | Heading |
|---|---|---|---|---|---|
| 2026-05-04 07:30 | 49.20498 | -2.19676 | 284 ft | 0 kts | 3° |
| 2026-05-04 07:56 | 49.20496 | -2.19677 | 284 ft | 2 kts | 3° |
| 2026-05-04 07:56 | 49.20473 | -2.19676 | 284 ft | 3 kts | 351° |
| 2026-05-04 07:57 | 49.20452 | -2.19667 | 287 ft | 3 kts | 324° |
| 2026-05-04 07:57 | 49.20439 | -2.19645 | 285 ft | 2 kts | 284° |
| 2026-05-04 07:57 | 49.20439 | -2.19643 | 284 ft | 0 kts | 284° |
| 2026-05-04 07:59 | 49.20440 | -2.19652 | 287 ft | 5 kts | 284° |
| 2026-05-04 08:00 | 49.20443 | -2.19701 | 284 ft | 5 kts | 268° |
| 2026-05-04 08:00 | 49.20439 | -2.19754 | 284 ft | 5 kts | 263° |
| 2026-05-04 08:00 | 49.20435 | -2.19811 | 284 ft | 5 kts | 263° |
| 2026-05-04 08:02 | 49.20701 | -2.19511 | 284 ft | 9 kts | 80° |
| 2026-05-04 08:02 | 49.20710 | -2.19396 | 284 ft | 13 kts | 90° |
| 2026-05-04 08:02 | 49.20685 | -2.19241 | 284 ft | 17 kts | 103° |
| 2026-05-04 08:03 | 49.20689 | -2.19042 | 284 ft | 21 kts | 81° |
| 2026-05-04 08:03 | 49.20710 | -2.18807 | 284 ft | 24 kts | 82° |
| 2026-05-04 08:03 | 49.20729 | -2.18545 | 284 ft | 23 kts | 84° |
| 2026-05-04 08:03 | 49.20746 | -2.18370 | 284 ft | 13 kts | 80° |
| 2026-05-04 08:04 | 49.20809 | -2.18324 | 284 ft | 13 kts | 343° |
| 2026-05-04 08:04 | 49.20867 | -2.18374 | 282 ft | 8 kts | 327° |
| 2026-05-04 08:04 | 49.20893 | -2.18427 | 281 ft | 4 kts | 270° |
| 2026-05-04 08:04 | 49.20891 | -2.18447 | 281 ft | 8 kts | 263° |
| 2026-05-04 08:05 | 49.20846 | -2.18992 | 284 ft | 96 kts | 263° |
| 2026-05-04 08:05 | 49.20732 | -2.20369 | 371 ft | 153 kts | 268° |
| 2026-05-04 08:05 | 49.20615 | -2.21984 | 1116 ft | 153 kts | 265° |
| 2026-05-04 08:05 | 49.20490 | -2.23620 | 1778 ft | 163 kts | 263° |
| 2026-05-04 08:06 | 49.20336 | -2.25467 | 2193 ft | 186 kts | 262° |
| 2026-05-04 08:06 | 49.20153 | -2.27549 | 2613 ft | 209 kts | 262° |
| 2026-05-04 08:06 | 49.19953 | -2.29820 | 3255 ft | 215 kts | 262° |
| 2026-05-04 08:06 | 49.19777 | -2.32071 | 3939 ft | 220 kts | 266° |
| 2026-05-04 08:08 | 49.28563 | -2.45792 | 9726 ft | 295 kts | 326° |
| 2026-05-04 08:08 | 49.30322 | -2.47523 | 10369 ft | 311 kts | 328° |
| 2026-05-04 08:10 | 49.47189 | -2.63793 | 15785 ft | 384 kts | 330° |
| 2026-05-04 08:11 | 49.49512 | -2.65860 | 16542 ft | 386 kts | 326° |
| 2026-05-04 08:11 | 49.54039 | -2.70457 | 17985 ft | 394 kts | 323° |
| 2026-05-04 08:11 | 49.56314 | -2.72858 | 18634 ft | 399 kts | 323° |
| 2026-05-04 08:12 | 49.58624 | -2.75272 | 19247 ft | 403 kts | 324° |
| 2026-05-04 08:12 | 49.60968 | -2.77683 | 19871 ft | 407 kts | 324° |
| 2026-05-04 08:12 | 49.63346 | -2.80094 | 20486 ft | 411 kts | 324° |
| 2026-05-04 08:12 | 49.65753 | -2.82512 | 21113 ft | 415 kts | 324° |
| 2026-05-04 08:13 | 49.68191 | -2.84953 | 21729 ft | 419 kts | 324° |
| 2026-05-04 08:13 | 49.70617 | -2.87386 | 22308 ft | 423 kts | 324° |
| 2026-05-04 08:13 | 49.73097 | -2.89884 | 22877 ft | 428 kts | 324° |
| 2026-05-04 08:13 | 49.75599 | -2.92415 | 23445 ft | 432 kts | 324° |
| 2026-05-04 08:14 | 49.78118 | -2.94971 | 23936 ft | 435 kts | 324° |
| 2026-05-04 08:14 | 49.80655 | -2.97554 | 24411 ft | 438 kts | 324° |
| 2026-05-04 08:14 | 49.83208 | -3.00156 | 24877 ft | 441 kts | 324° |
| 2026-05-04 08:16 | 50.00846 | -3.20096 | 27972 ft | 452 kts | 304° |
| 2026-05-04 08:16 | 50.02601 | -3.24136 | 28443 ft | 449 kts | 297° |
| 2026-05-04 08:16 | 50.04337 | -3.28200 | 28842 ft | 455 kts | 306° |
| 2026-05-04 08:17 | 50.06556 | -3.31747 | 29213 ft | 461 kts | 317° |
| 2026-05-04 08:17 | 50.09162 | -3.34691 | 29572 ft | 466 kts | 327° |
| 2026-05-04 08:17 | 50.12030 | -3.37076 | 29921 ft | 469 kts | 332° |
| 2026-05-04 08:17 | 50.14948 | -3.39395 | 30234 ft | 471 kts | 331° |
| 2026-05-04 08:19 | 50.35311 | -3.55947 | 32009 ft | 462 kts | 331° |
| 2026-05-04 08:19 | 50.38157 | -3.58258 | 32007 ft | 459 kts | 331° |
| 2026-05-04 08:20 | 50.43819 | -3.62811 | 32011 ft | 458 kts | 335° |
| 2026-05-04 08:20 | 50.49950 | -3.65460 | 32010 ft | 459 kts | 354° |
| 2026-05-04 08:21 | 50.56316 | -3.65054 | 32009 ft | 460 kts | 7° |
| 2026-05-04 08:21 | 50.62667 | -3.63816 | 32001 ft | 459 kts | 7° |
| 2026-05-04 08:22 | 50.69002 | -3.62614 | 32014 ft | 458 kts | 7° |
| 2026-05-04 08:24 | 50.94166 | -3.57777 | 32015 ft | 455 kts | 7° |
| 2026-05-04 08:24 | 51.00443 | -3.56567 | 32014 ft | 454 kts | 7° |
| 2026-05-04 08:25 | 51.06716 | -3.55351 | 32005 ft | 454 kts | 7° |
| 2026-05-04 08:25 | 51.12982 | -3.54128 | 32008 ft | 454 kts | 7° |
| 2026-05-04 08:27 | 51.38022 | -3.49217 | 32035 ft | 452 kts | 8° |
| 2026-05-04 08:28 | 51.44253 | -3.47979 | 32034 ft | 451 kts | 8° |
| 2026-05-04 08:28 | 51.50479 | -3.46749 | 32030 ft | 451 kts | 8° |
| 2026-05-04 08:29 | 51.56657 | -3.45528 | 32044 ft | 448 kts | 8° |
| 2026-05-04 08:31 | 51.81246 | -3.40603 | 31519 ft | 441 kts | 8° |
| 2026-05-04 08:33 | 52.02840 | -3.37336 | 29711 ft | 445 kts | 2° |
| 2026-05-04 08:33 | 52.05881 | -3.37222 | 29433 ft | 443 kts | 2° |
| 2026-05-04 08:35 | 52.26831 | -3.35794 | 25100 ft | 420 kts | 4° |
| 2026-05-04 08:35 | 52.29741 | -3.35576 | 24481 ft | 417 kts | 4° |
| 2026-05-04 08:35 | 52.32633 | -3.35365 | 23857 ft | 415 kts | 2° |
| 2026-05-04 08:35 | 52.35510 | -3.35158 | 23218 ft | 413 kts | 2° |
| 2026-05-04 08:37 | 52.52211 | -3.33942 | 20118 ft | 388 kts | 3° |
| 2026-05-04 08:37 | 52.54895 | -3.33747 | 19621 ft | 385 kts | 3° |
| 2026-05-04 08:37 | 52.57564 | -3.33553 | 19113 ft | 382 kts | 2° |
| 2026-05-04 08:38 | 52.60210 | -3.33358 | 18597 ft | 380 kts | 2° |
| 2026-05-04 08:38 | 52.62836 | -3.32923 | 18045 ft | 379 kts | 11° |
| 2026-05-04 08:38 | 52.65362 | -3.31734 | 17401 ft | 378 kts | 20° |
| 2026-05-04 08:40 | 52.82583 | -3.21429 | 13055 ft | 370 kts | 20° |
| 2026-05-04 08:40 | 52.85000 | -3.19972 | 12465 ft | 367 kts | 20° |
| 2026-05-04 08:40 | 52.87393 | -3.18531 | 11793 ft | 365 kts | 19° |
| 2026-05-04 08:41 | 52.89799 | -3.17469 | 11584 ft | 350 kts | 8° |
| 2026-05-04 08:41 | 52.91380 | -3.17241 | 11505 ft | 339 kts | 2° |
| 2026-05-04 08:41 | 52.93680 | -3.17071 | 11378 ft | 324 kts | 2° |
| 2026-05-04 08:41 | 52.95889 | -3.16901 | 11253 ft | 311 kts | 2° |
| 2026-05-04 08:42 | 52.98008 | -3.16734 | 11131 ft | 299 kts | 2° |
| 2026-05-04 08:42 | 53.00058 | -3.16571 | 10873 ft | 292 kts | 2° |
| 2026-05-04 08:42 | 53.02085 | -3.16408 | 10502 ft | 290 kts | 2° |
| 2026-05-04 08:42 | 53.04085 | -3.16245 | 9968 ft | 285 kts | 2° |
| 2026-05-04 08:43 | 53.06059 | -3.16084 | 9201 ft | 283 kts | 2° |
| 2026-05-04 08:43 | 53.08024 | -3.15928 | 8458 ft | 284 kts | 2° |
| 2026-05-04 08:43 | 53.10012 | -3.15771 | 7858 ft | 288 kts | 2° |
| 2026-05-04 08:43 | 53.12014 | -3.15612 | 7349 ft | 288 kts | 2° |
| 2026-05-04 08:44 | 53.13963 | -3.15457 | 7255 ft | 272 kts | 2° |
| 2026-05-04 08:44 | 53.15799 | -3.15309 | 7192 ft | 257 kts | 3° |
| 2026-05-04 08:46 | 53.27197 | -3.14204 | 5232 ft | 231 kts | 4° |
| 2026-05-04 08:46 | 53.28792 | -3.14050 | 4869 ft | 227 kts | 6° |
| 2026-05-04 08:46 | 53.30223 | -3.13252 | 4538 ft | 213 kts | 36° |
| 2026-05-04 08:46 | 53.31283 | -3.11618 | 4225 ft | 204 kts | 52° |
| 2026-05-04 08:47 | 53.31976 | -3.09635 | 3970 ft | 191 kts | 67° |
| 2026-05-04 08:47 | 53.32295 | -3.07545 | 3671 ft | 183 kts | 82° |
| 2026-05-04 08:47 | 53.32400 | -3.05428 | 3449 ft | 181 kts | 84° |
| 2026-05-04 08:47 | 53.32523 | -3.03307 | 3115 ft | 190 kts | 82° |
| 2026-05-04 08:48 | 53.32671 | -3.01068 | 2640 ft | 194 kts | 84° |
| 2026-05-04 08:48 | 53.32716 | -2.98881 | 2295 ft | 185 kts | 88° |
| 2026-05-04 08:48 | 53.32766 | -2.96754 | 1809 ft | 181 kts | 85° |
| 2026-05-04 08:48 | 53.32913 | -2.94736 | 1493 ft | 168 kts | 82° |
| 2026-05-04 08:49 | 53.32994 | -2.92907 | 1255 ft | 149 kts | 85° |
| 2026-05-04 08:50 | 53.33384 | -2.84615 | 71 ft | 24 kts | 76° |
| 2026-05-04 08:50 | 53.33450 | -2.84436 | 84 ft | 19 kts | 61° |
| 2026-05-04 08:51 | 53.33515 | -2.84264 | 74 ft | 13 kts | 43° |
| 2026-05-04 08:51 | 53.33559 | -2.84346 | 77 ft | 14 kts | 263° |
| 2026-05-04 08:51 | 53.33550 | -2.84532 | 81 ft | 17 kts | 265° |
| 2026-05-04 08:51 | 53.33540 | -2.84743 | 82 ft | 20 kts | 264° |
| 2026-05-04 08:52 | 53.33529 | -2.84984 | 85 ft | 23 kts | 266° |
| 2026-05-04 08:52 | 53.33516 | -2.85271 | 85 ft | 26 kts | 266° |
| 2026-05-04 08:52 | 53.33510 | -2.85478 | 86 ft | 10 kts | 287° |
| 2026-05-04 08:52 | 53.33568 | -2.85508 | 85 ft | 7 kts | 357° |
| 2026-05-04 08:53 | 53.33616 | -2.85508 | 87 ft | 4 kts | 0° |
| 2026-05-04 08:54 | 53.33664 | -2.85513 | 86 ft | 0 kts | 355° |